sensor_id;sensor_type;location;lat;lon;timestamp;P1;durP1;ratioP1;P2;durP2;ratioP2
67063;SDS011;58476;48.072;11.970;2024-02-26T00:00:20;5.35;;;3.90;;
67063;SDS011;58476;48.072;11.970;2024-02-26T00:02:46;7.65;;;3.83;;
67063;SDS011;58476;48.072;11.970;2024-02-26T00:05:11;5.55;;;3.80;;
67063;SDS011;58476;48.072;11.970;2024-02-26T00:07:36;5.57;;;3.80;;
67063;SDS011;58476;48.072;11.970;2024-02-26T00:10:02;5.13;;;3.65;;
67063;SDS011;58476;48.072;11.970;2024-02-26T00:12:27;4.93;;;3.58;;
67063;SDS011;58476;48.072;11.970;2024-02-26T00:14:52;5.97;;;3.83;;
67063;SDS011;58476;48.072;11.970;2024-02-26T00:17:18;6.18;;;4.00;;
67063;SDS011;58476;48.072;11.970;2024-02-26T00:19:43;5.45;;;3.63;;
67063;SDS011;58476;48.072;11.970;2024-02-26T00:22:08;5.78;;;3.72;;
67063;SDS011;58476;48.072;11.970;2024-02-26T00:24:34;4.75;;;3.25;;
67063;SDS011;58476;48.072;11.970;2024-02-26T00:26:59;4.60;;;3.72;;
67063;SDS011;58476;48.072;11.970;2024-02-26T00:29:24;4.47;;;3.17;;
67063;SDS011;58476;48.072;11.970;2024-02-26T00:31:50;6.07;;;3.92;;
67063;SDS011;58476;48.072;11.970;2024-02-26T00:34:15;5.93;;;3.90;;
67063;SDS011;58476;48.072;11.970;2024-02-26T00:36:40;4.97;;;3.45;;
67063;SDS011;58476;48.072;11.970;2024-02-26T00:39:06;5.43;;;3.53;;
67063;SDS011;58476;48.072;11.970;2024-02-26T00:41:31;5.22;;;3.40;;
67063;SDS011;58476;48.072;11.970;2024-02-26T00:43:56;4.22;;;3.35;;
67063;SDS011;58476;48.072;11.970;2024-02-26T00:46:22;4.57;;;3.35;;
67063;SDS011;58476;48.072;11.970;2024-02-26T00:48:47;6.00;;;3.30;;
67063;SDS011;58476;48.072;11.970;2024-02-26T00:51:12;5.03;;;3.00;;
67063;SDS011;58476;48.072;11.970;2024-02-26T00:53:38;4.82;;;3.35;;
67063;SDS011;58476;48.072;11.970;2024-02-26T00:56:03;5.03;;;3.33;;
67063;SDS011;58476;48.072;11.970;2024-02-26T00:58:28;4.30;;;3.20;;
67063;SDS011;58476;48.072;11.970;2024-02-26T01:00:54;4.65;;;3.03;;
67063;SDS011;58476;48.072;11.970;2024-02-26T01:03:19;4.32;;;3.20;;
67063;SDS011;58476;48.072;11.970;2024-02-26T01:05:44;4.30;;;3.20;;
67063;SDS011;58476;48.072;11.970;2024-02-26T01:08:10;3.70;;;2.83;;
67063;SDS011;58476;48.072;11.970;2024-02-26T01:10:35;4.28;;;3.10;;
67063;SDS011;58476;48.072;11.970;2024-02-26T01:13:01;4.93;;;3.30;;
67063;SDS011;58476;48.072;11.970;2024-02-26T01:15:26;4.35;;;3.13;;
67063;SDS011;58476;48.072;11.970;2024-02-26T01:17:52;4.82;;;3.13;;
67063;SDS011;58476;48.072;11.970;2024-02-26T01:20:17;4.70;;;3.20;;
67063;SDS011;58476;48.072;11.970;2024-02-26T01:22:43;3.72;;;3.00;;
67063;SDS011;58476;48.072;11.970;2024-02-26T01:25:08;3.83;;;3.00;;
67063;SDS011;58476;48.072;11.970;2024-02-26T01:27:34;4.57;;;3.03;;
67063;SDS011;58476;48.072;11.970;2024-02-26T01:30:01;4.53;;;3.15;;
67063;SDS011;58476;48.072;11.970;2024-02-26T01:32:27;3.85;;;3.00;;
67063;SDS011;58476;48.072;11.970;2024-02-26T01:34:52;5.50;;;2.95;;
67063;SDS011;58476;48.072;11.970;2024-02-26T01:37:18;4.13;;;3.15;;
67063;SDS011;58476;48.072;11.970;2024-02-26T01:39:43;3.92;;;2.70;;
67063;SDS011;58476;48.072;11.970;2024-02-26T01:42:08;5.13;;;3.20;;
67063;SDS011;58476;48.072;11.970;2024-02-26T01:44:34;5.50;;;3.00;;
67063;SDS011;58476;48.072;11.970;2024-02-26T01:46:59;4.85;;;2.95;;
67063;SDS011;58476;48.072;11.970;2024-02-26T01:49:25;3.72;;;2.67;;
67063;SDS011;58476;48.072;11.970;2024-02-26T01:51:50;4.88;;;3.17;;
67063;SDS011;58476;48.072;11.970;2024-02-26T01:54:16;4.57;;;2.90;;
67063;SDS011;58476;48.072;11.970;2024-02-26T01:56:41;4.78;;;3.40;;
67063;SDS011;58476;48.072;11.970;2024-02-26T01:59:07;4.65;;;2.90;;
67063;SDS011;58476;48.072;11.970;2024-02-26T02:01:33;3.92;;;2.83;;
67063;SDS011;58476;48.072;11.970;2024-02-26T02:03:59;6.72;;;2.88;;
67063;SDS011;58476;48.072;11.970;2024-02-26T02:06:25;7.57;;;2.67;;
67063;SDS011;58476;48.072;11.970;2024-02-26T02:08:51;4.47;;;2.88;;
67063;SDS011;58476;48.072;11.970;2024-02-26T02:11:17;3.80;;;2.80;;
67063;SDS011;58476;48.072;11.970;2024-02-26T02:13:43;3.72;;;2.63;;
67063;SDS011;58476;48.072;11.970;2024-02-26T02:16:08;3.85;;;2.50;;
67063;SDS011;58476;48.072;11.970;2024-02-26T02:18:34;3.97;;;2.67;;
67063;SDS011;58476;48.072;11.970;2024-02-26T02:21:02;10.93;;;2.97;;
67063;SDS011;58476;48.072;11.970;2024-02-26T02:23:28;14.75;;;3.22;;
67063;SDS011;58476;48.072;11.970;2024-02-26T02:25:53;16.27;;;3.28;;
67063;SDS011;58476;48.072;11.970;2024-02-26T02:28:21;7.22;;;3.00;;
67063;SDS011;58476;48.072;11.970;2024-02-26T02:30:47;8.18;;;3.05;;
67063;SDS011;58476;48.072;11.970;2024-02-26T02:33:13;7.90;;;2.85;;
67063;SDS011;58476;48.072;11.970;2024-02-26T02:35:39;7.10;;;2.83;;
67063;SDS011;58476;48.072;11.970;2024-02-26T02:38:04;8.02;;;2.55;;
67063;SDS011;58476;48.072;11.970;2024-02-26T02:40:30;6.97;;;2.80;;
67063;SDS011;58476;48.072;11.970;2024-02-26T02:42:55;5.40;;;3.03;;
67063;SDS011;58476;48.072;11.970;2024-02-26T02:45:21;7.45;;;2.60;;
67063;SDS011;58476;48.072;11.970;2024-02-26T02:47:46;5.78;;;2.47;;
67063;SDS011;58476;48.072;11.970;2024-02-26T02:50:11;7.07;;;2.78;;
67063;SDS011;58476;48.072;11.970;2024-02-26T02:52:37;17.40;;;3.00;;
67063;SDS011;58476;48.072;11.970;2024-02-26T02:55:02;4.47;;;2.50;;
67063;SDS011;58476;48.072;11.970;2024-02-26T02:57:27;5.55;;;2.80;;
67063;SDS011;58476;48.072;11.970;2024-02-26T02:59:54;3.28;;;2.40;;
67063;SDS011;58476;48.072;11.970;2024-02-26T03:02:19;5.43;;;2.70;;
67063;SDS011;58476;48.072;11.970;2024-02-26T03:04:44;4.32;;;2.47;;
67063;SDS011;58476;48.072;11.970;2024-02-26T03:07:10;3.75;;;2.20;;
67063;SDS011;58476;48.072;11.970;2024-02-26T03:09:35;3.88;;;2.40;;
67063;SDS011;58476;48.072;11.970;2024-02-26T03:12:00;3.95;;;2.45;;
67063;SDS011;58476;48.072;11.970;2024-02-26T03:14:26;4.95;;;2.30;;
67063;SDS011;58476;48.072;11.970;2024-02-26T03:16:54;6.68;;;2.35;;
67063;SDS011;58476;48.072;11.970;2024-02-26T03:19:20;7.60;;;2.75;;
67063;SDS011;58476;48.072;11.970;2024-02-26T03:21:45;3.97;;;2.50;;
67063;SDS011;58476;48.072;11.970;2024-02-26T03:24:10;3.17;;;2.35;;
67063;SDS011;58476;48.072;11.970;2024-02-26T03:26:36;3.55;;;2.38;;
67063;SDS011;58476;48.072;11.970;2024-02-26T03:29:02;2.72;;;2.10;;
67063;SDS011;58476;48.072;11.970;2024-02-26T03:31:27;4.03;;;2.58;;
67063;SDS011;58476;48.072;11.970;2024-02-26T03:33:52;4.95;;;2.50;;
67063;SDS011;58476;48.072;11.970;2024-02-26T03:36:18;3.97;;;2.10;;
67063;SDS011;58476;48.072;11.970;2024-02-26T03:38:43;4.00;;;2.58;;
67063;SDS011;58476;48.072;11.970;2024-02-26T03:41:08;3.67;;;2.30;;
67063;SDS011;58476;48.072;11.970;2024-02-26T03:43:34;3.78;;;2.25;;
67063;SDS011;58476;48.072;11.970;2024-02-26T03:45:59;5.05;;;2.50;;
67063;SDS011;58476;48.072;11.970;2024-02-26T03:48:24;4.05;;;2.30;;
67063;SDS011;58476;48.072;11.970;2024-02-26T03:50:50;2.92;;;2.13;;
67063;SDS011;58476;48.072;11.970;2024-02-26T03:53:15;3.65;;;2.30;;
67063;SDS011;58476;48.072;11.970;2024-02-26T03:55:40;2.80;;;2.30;;
67063;SDS011;58476;48.072;11.970;2024-02-26T03:58:06;3.63;;;2.50;;
67063;SDS011;58476;48.072;11.970;2024-02-26T04:00:31;2.80;;;2.10;;
67063;SDS011;58476;48.072;11.970;2024-02-26T04:02:56;3.08;;;2.15;;
67063;SDS011;58476;48.072;11.970;2024-02-26T04:05:22;3.33;;;2.22;;
67063;SDS011;58476;48.072;11.970;2024-02-26T04:07:47;5.68;;;2.28;;
67063;SDS011;58476;48.072;11.970;2024-02-26T04:10:12;3.08;;;2.05;;
67063;SDS011;58476;48.072;11.970;2024-02-26T04:12:41;2.75;;;2.20;;
67063;SDS011;58476;48.072;11.970;2024-02-26T04:15:07;2.47;;;2.10;;
67063;SDS011;58476;48.072;11.970;2024-02-26T04:17:36;4.97;;;2.30;;
67063;SDS011;58476;48.072;11.970;2024-02-26T04:20:02;3.38;;;2.15;;
67063;SDS011;58476;48.072;11.970;2024-02-26T04:22:28;4.50;;;2.20;;
67063;SDS011;58476;48.072;11.970;2024-02-26T04:24:54;4.47;;;2.58;;
67063;SDS011;58476;48.072;11.970;2024-02-26T04:27:19;2.55;;;2.00;;
67063;SDS011;58476;48.072;11.970;2024-02-26T04:29:44;2.85;;;2.20;;
67063;SDS011;58476;48.072;11.970;2024-02-26T04:32:10;3.38;;;2.40;;
67063;SDS011;58476;48.072;11.970;2024-02-26T04:34:35;3.47;;;2.50;;
67063;SDS011;58476;48.072;11.970;2024-02-26T04:37:00;4.40;;;2.20;;
67063;SDS011;58476;48.072;11.970;2024-02-26T04:39:25;3.33;;;2.20;;
67063;SDS011;58476;48.072;11.970;2024-02-26T04:41:51;2.65;;;1.95;;
67063;SDS011;58476;48.072;11.970;2024-02-26T04:44:16;3.22;;;2.13;;
67063;SDS011;58476;48.072;11.970;2024-02-26T04:46:41;2.95;;;2.20;;
67063;SDS011;58476;48.072;11.970;2024-02-26T04:49:07;2.50;;;2.13;;
67063;SDS011;58476;48.072;11.970;2024-02-26T04:51:32;3.47;;;1.88;;
67063;SDS011;58476;48.072;11.970;2024-02-26T04:53:57;4.13;;;2.00;;
67063;SDS011;58476;48.072;11.970;2024-02-26T04:56:23;2.40;;;1.98;;
67063;SDS011;58476;48.072;11.970;2024-02-26T04:58:48;2.78;;;2.10;;
67063;SDS011;58476;48.072;11.970;2024-02-26T05:01:14;3.22;;;2.00;;
67063;SDS011;58476;48.072;11.970;2024-02-26T05:03:40;2.95;;;2.00;;
67063;SDS011;58476;48.072;11.970;2024-02-26T05:06:05;3.13;;;2.10;;
67063;SDS011;58476;48.072;11.970;2024-02-26T05:08:31;5.18;;;2.10;;
67063;SDS011;58476;48.072;11.970;2024-02-26T05:10:56;2.50;;;2.00;;
67063;SDS011;58476;48.072;11.970;2024-02-26T05:13:21;4.55;;;2.10;;
67063;SDS011;58476;48.072;11.970;2024-02-26T05:15:47;3.25;;;2.10;;
67063;SDS011;58476;48.072;11.970;2024-02-26T05:18:12;4.85;;;1.95;;
67063;SDS011;58476;48.072;11.970;2024-02-26T05:20:37;4.40;;;2.00;;
67063;SDS011;58476;48.072;11.970;2024-02-26T05:23:03;5.55;;;2.05;;
67063;SDS011;58476;48.072;11.970;2024-02-26T05:25:28;6.40;;;2.13;;
67063;SDS011;58476;48.072;11.970;2024-02-26T05:27:53;7.15;;;1.83;;
67063;SDS011;58476;48.072;11.970;2024-02-26T05:30:19;6.85;;;2.28;;
67063;SDS011;58476;48.072;11.970;2024-02-26T05:32:44;11.75;;;2.20;;
67063;SDS011;58476;48.072;11.970;2024-02-26T05:35:10;7.35;;;2.03;;
67063;SDS011;58476;48.072;11.970;2024-02-26T05:37:35;9.32;;;2.28;;
67063;SDS011;58476;48.072;11.970;2024-02-26T05:40:00;6.82;;;2.67;;
67063;SDS011;58476;48.072;11.970;2024-02-26T05:42:25;4.90;;;2.05;;
67063;SDS011;58476;48.072;11.970;2024-02-26T05:44:51;8.93;;;2.00;;
67063;SDS011;58476;48.072;11.970;2024-02-26T05:47:16;5.35;;;2.03;;
67063;SDS011;58476;48.072;11.970;2024-02-26T05:49:41;2.05;;;1.83;;
67063;SDS011;58476;48.072;11.970;2024-02-26T05:52:07;12.60;;;2.30;;
67063;SDS011;58476;48.072;11.970;2024-02-26T05:54:32;7.45;;;1.90;;
67063;SDS011;58476;48.072;11.970;2024-02-26T05:56:57;8.18;;;2.50;;
67063;SDS011;58476;48.072;11.970;2024-02-26T05:59:23;12.00;;;2.47;;
67063;SDS011;58476;48.072;11.970;2024-02-26T06:01:48;7.57;;;2.30;;
67063;SDS011;58476;48.072;11.970;2024-02-26T06:04:14;7.75;;;2.33;;
67063;SDS011;58476;48.072;11.970;2024-02-26T06:06:39;13.57;;;2.67;;
67063;SDS011;58476;48.072;11.970;2024-02-26T06:09:04;5.47;;;2.05;;
67063;SDS011;58476;48.072;11.970;2024-02-26T06:11:30;12.02;;;2.63;;
67063;SDS011;58476;48.072;11.970;2024-02-26T06:13:55;9.77;;;2.25;;
67063;SDS011;58476;48.072;11.970;2024-02-26T06:16:20;9.85;;;2.72;;
67063;SDS011;58476;48.072;11.970;2024-02-26T06:18:45;7.63;;;2.40;;
67063;SDS011;58476;48.072;11.970;2024-02-26T06:21:11;11.68;;;2.15;;
67063;SDS011;58476;48.072;11.970;2024-02-26T06:23:37;11.60;;;2.38;;
67063;SDS011;58476;48.072;11.970;2024-02-26T06:26:05;8.90;;;2.05;;
67063;SDS011;58476;48.072;11.970;2024-02-26T06:28:30;12.52;;;2.55;;
67063;SDS011;58476;48.072;11.970;2024-02-26T06:30:55;6.65;;;2.50;;
67063;SDS011;58476;48.072;11.970;2024-02-26T06:33:21;10.98;;;3.10;;
67063;SDS011;58476;48.072;11.970;2024-02-26T06:35:46;3.75;;;2.05;;
67063;SDS011;58476;48.072;11.970;2024-02-26T06:38:11;5.25;;;2.10;;
67063;SDS011;58476;48.072;11.970;2024-02-26T06:40:37;5.25;;;2.40;;
67063;SDS011;58476;48.072;11.970;2024-02-26T06:43:02;8.82;;;1.83;;
67063;SDS011;58476;48.072;11.970;2024-02-26T06:45:27;4.85;;;2.00;;
67063;SDS011;58476;48.072;11.970;2024-02-26T06:47:53;4.32;;;2.00;;
67063;SDS011;58476;48.072;11.970;2024-02-26T06:50:18;6.90;;;2.15;;
67063;SDS011;58476;48.072;11.970;2024-02-26T06:52:44;6.85;;;2.10;;
67063;SDS011;58476;48.072;11.970;2024-02-26T06:55:09;8.65;;;2.55;;
67063;SDS011;58476;48.072;11.970;2024-02-26T06:57:34;5.40;;;2.30;;
67063;SDS011;58476;48.072;11.970;2024-02-26T07:00:00;4.40;;;2.20;;
67063;SDS011;58476;48.072;11.970;2024-02-26T07:02:25;6.32;;;2.15;;
67063;SDS011;58476;48.072;11.970;2024-02-26T07:04:50;5.55;;;2.33;;
67063;SDS011;58476;48.072;11.970;2024-02-26T07:07:16;8.60;;;2.47;;
67063;SDS011;58476;48.072;11.970;2024-02-26T07:09:41;4.82;;;1.80;;
67063;SDS011;58476;48.072;11.970;2024-02-26T07:12:07;6.78;;;2.28;;
67063;SDS011;58476;48.072;11.970;2024-02-26T07:14:32;7.40;;;1.85;;
67063;SDS011;58476;48.072;11.970;2024-02-26T07:16:57;7.50;;;2.10;;
67063;SDS011;58476;48.072;11.970;2024-02-26T07:19:23;12.98;;;3.92;;
67063;SDS011;58476;48.072;11.970;2024-02-26T07:21:48;7.97;;;2.22;;
67063;SDS011;58476;48.072;11.970;2024-02-26T07:24:13;6.75;;;2.45;;
67063;SDS011;58476;48.072;11.970;2024-02-26T07:26:39;7.00;;;3.05;;
67063;SDS011;58476;48.072;11.970;2024-02-26T07:29:04;5.95;;;2.40;;
67063;SDS011;58476;48.072;11.970;2024-02-26T07:31:29;21.70;;;3.78;;
67063;SDS011;58476;48.072;11.970;2024-02-26T07:33:54;10.75;;;2.50;;
67063;SDS011;58476;48.072;11.970;2024-02-26T07:36:20;15.50;;;3.10;;
67063;SDS011;58476;48.072;11.970;2024-02-26T07:38:45;9.40;;;2.40;;
67063;SDS011;58476;48.072;11.970;2024-02-26T07:41:11;7.45;;;2.38;;
67063;SDS011;58476;48.072;11.970;2024-02-26T07:43:37;13.23;;;2.28;;
67063;SDS011;58476;48.072;11.970;2024-02-26T07:46:02;7.15;;;2.30;;
67063;SDS011;58476;48.072;11.970;2024-02-26T07:48:27;9.27;;;2.63;;
67063;SDS011;58476;48.072;11.970;2024-02-26T07:50:53;6.78;;;2.30;;
67063;SDS011;58476;48.072;11.970;2024-02-26T07:53:18;15.05;;;2.85;;
67063;SDS011;58476;48.072;11.970;2024-02-26T07:55:43;39.03;;;4.28;;
67063;SDS011;58476;48.072;11.970;2024-02-26T07:58:08;5.22;;;2.10;;
67063;SDS011;58476;48.072;11.970;2024-02-26T08:00:34;12.18;;;2.50;;
67063;SDS011;58476;48.072;11.970;2024-02-26T08:02:59;13.32;;;3.05;;
67063;SDS011;58476;48.072;11.970;2024-02-26T08:05:25;7.80;;;2.58;;
67063;SDS011;58476;48.072;11.970;2024-02-26T08:07:51;10.80;;;2.78;;
67063;SDS011;58476;48.072;11.970;2024-02-26T08:10:16;17.15;;;2.88;;
67063;SDS011;58476;48.072;11.970;2024-02-26T08:12:41;10.63;;;2.85;;
67063;SDS011;58476;48.072;11.970;2024-02-26T08:15:07;13.07;;;3.65;;
67063;SDS011;58476;48.072;11.970;2024-02-26T08:17:33;16.98;;;3.90;;
67063;SDS011;58476;48.072;11.970;2024-02-26T08:19:59;7.95;;;3.17;;
67063;SDS011;58476;48.072;11.970;2024-02-26T08:22:24;12.60;;;2.50;;
67063;SDS011;58476;48.072;11.970;2024-02-26T08:24:50;15.77;;;2.83;;
67063;SDS011;58476;48.072;11.970;2024-02-26T08:27:15;25.23;;;3.08;;
67063;SDS011;58476;48.072;11.970;2024-02-26T08:29:40;13.77;;;3.38;;
67063;SDS011;58476;48.072;11.970;2024-02-26T08:32:06;16.00;;;2.40;;
67063;SDS011;58476;48.072;11.970;2024-02-26T08:34:31;19.98;;;2.78;;
67063;SDS011;58476;48.072;11.970;2024-02-26T08:36:56;25.63;;;3.83;;
67063;SDS011;58476;48.072;11.970;2024-02-26T08:39:22;34.10;;;4.25;;
67063;SDS011;58476;48.072;11.970;2024-02-26T08:41:47;14.32;;;2.63;;
67063;SDS011;58476;48.072;11.970;2024-02-26T08:44:12;22.27;;;4.15;;
67063;SDS011;58476;48.072;11.970;2024-02-26T08:46:37;15.82;;;2.42;;
67063;SDS011;58476;48.072;11.970;2024-02-26T08:49:03;33.03;;;3.83;;
67063;SDS011;58476;48.072;11.970;2024-02-26T08:51:29;21.75;;;3.17;;
67063;SDS011;58476;48.072;11.970;2024-02-26T08:53:54;13.85;;;2.88;;
67063;SDS011;58476;48.072;11.970;2024-02-26T08:56:20;21.27;;;2.90;;
67063;SDS011;58476;48.072;11.970;2024-02-26T08:58:45;18.77;;;2.90;;
67063;SDS011;58476;48.072;11.970;2024-02-26T09:01:10;16.42;;;2.33;;
67063;SDS011;58476;48.072;11.970;2024-02-26T09:03:36;14.82;;;2.20;;
67063;SDS011;58476;48.072;11.970;2024-02-26T09:06:01;13.70;;;2.70;;
67063;SDS011;58476;48.072;11.970;2024-02-26T09:08:26;10.65;;;2.10;;
67063;SDS011;58476;48.072;11.970;2024-02-26T09:10:52;6.03;;;2.10;;
67063;SDS011;58476;48.072;11.970;2024-02-26T09:13:17;15.52;;;2.25;;
67063;SDS011;58476;48.072;11.970;2024-02-26T09:15:42;14.93;;;2.53;;
67063;SDS011;58476;48.072;11.970;2024-02-26T09:18:08;16.48;;;2.45;;
67063;SDS011;58476;48.072;11.970;2024-02-26T09:20:33;25.25;;;2.60;;
67063;SDS011;58476;48.072;11.970;2024-02-26T09:22:58;18.83;;;3.83;;
67063;SDS011;58476;48.072;11.970;2024-02-26T09:25:23;21.13;;;2.65;;
67063;SDS011;58476;48.072;11.970;2024-02-26T09:27:49;20.15;;;3.05;;
67063;SDS011;58476;48.072;11.970;2024-02-26T09:30:14;10.18;;;2.30;;
67063;SDS011;58476;48.072;11.970;2024-02-26T09:32:40;19.13;;;2.60;;
67063;SDS011;58476;48.072;11.970;2024-02-26T09:35:05;17.88;;;2.67;;
67063;SDS011;58476;48.072;11.970;2024-02-26T09:37:31;15.18;;;2.03;;
67063;SDS011;58476;48.072;11.970;2024-02-26T09:39:57;19.08;;;2.78;;
67063;SDS011;58476;48.072;11.970;2024-02-26T09:42:24;12.07;;;2.30;;
67063;SDS011;58476;48.072;11.970;2024-02-26T09:44:51;24.35;;;4.05;;
67063;SDS011;58476;48.072;11.970;2024-02-26T09:47:18;26.42;;;2.88;;
67063;SDS011;58476;48.072;11.970;2024-02-26T09:49:44;26.38;;;3.85;;
67063;SDS011;58476;48.072;11.970;2024-02-26T09:52:12;37.28;;;3.20;;
67063;SDS011;58476;48.072;11.970;2024-02-26T09:54:40;16.63;;;2.60;;
67063;SDS011;58476;48.072;11.970;2024-02-26T09:57:06;33.72;;;3.10;;
67063;SDS011;58476;48.072;11.970;2024-02-26T09:59:37;28.52;;;4.18;;
67063;SDS011;58476;48.072;11.970;2024-02-26T10:02:04;43.95;;;3.80;;
67063;SDS011;58476;48.072;11.970;2024-02-26T10:04:30;18.27;;;2.25;;
67063;SDS011;58476;48.072;11.970;2024-02-26T10:06:56;25.35;;;3.20;;
67063;SDS011;58476;48.072;11.970;2024-02-26T10:09:22;20.95;;;2.50;;
67063;SDS011;58476;48.072;11.970;2024-02-26T10:11:47;11.90;;;1.98;;
67063;SDS011;58476;48.072;11.970;2024-02-26T10:14:14;14.65;;;2.55;;
67063;SDS011;58476;48.072;11.970;2024-02-26T10:16:39;12.55;;;2.20;;
67063;SDS011;58476;48.072;11.970;2024-02-26T10:19:05;14.80;;;2.53;;
67063;SDS011;58476;48.072;11.970;2024-02-26T10:21:30;18.35;;;3.08;;
67063;SDS011;58476;48.072;11.970;2024-02-26T10:23:56;27.48;;;2.85;;
67063;SDS011;58476;48.072;11.970;2024-02-26T10:26:21;32.33;;;2.95;;
67063;SDS011;58476;48.072;11.970;2024-02-26T10:28:46;14.25;;;3.22;;
67063;SDS011;58476;48.072;11.970;2024-02-26T10:31:13;15.05;;;2.40;;
67063;SDS011;58476;48.072;11.970;2024-02-26T10:33:39;11.65;;;2.40;;
67063;SDS011;58476;48.072;11.970;2024-02-26T10:36:06;10.82;;;2.00;;
67063;SDS011;58476;48.072;11.970;2024-02-26T10:38:32;10.20;;;1.80;;
67063;SDS011;58476;48.072;11.970;2024-02-26T10:40:57;12.82;;;2.08;;
67063;SDS011;58476;48.072;11.970;2024-02-26T10:43:25;8.82;;;2.45;;
67063;SDS011;58476;48.072;11.970;2024-02-26T10:45:50;8.48;;;1.52;;
67063;SDS011;58476;48.072;11.970;2024-02-26T10:48:16;8.38;;;2.08;;
67063;SDS011;58476;48.072;11.970;2024-02-26T10:50:42;8.15;;;2.03;;
67063;SDS011;58476;48.072;11.970;2024-02-26T10:53:12;4.93;;;1.63;;
67063;SDS011;58476;48.072;11.970;2024-02-26T10:55:40;7.28;;;2.15;;
67063;SDS011;58476;48.072;11.970;2024-02-26T10:58:06;10.27;;;1.70;;
67063;SDS011;58476;48.072;11.970;2024-02-26T11:00:33;4.72;;;1.48;;
67063;SDS011;58476;48.072;11.970;2024-02-26T11:02:59;7.93;;;1.70;;
67063;SDS011;58476;48.072;11.970;2024-02-26T11:05:26;8.32;;;1.52;;
67063;SDS011;58476;48.072;11.970;2024-02-26T11:07:53;6.88;;;1.50;;
67063;SDS011;58476;48.072;11.970;2024-02-26T11:10:19;6.22;;;1.40;;
67063;SDS011;58476;48.072;11.970;2024-02-26T11:12:45;7.32;;;1.88;;
67063;SDS011;58476;48.072;11.970;2024-02-26T11:15:11;4.05;;;1.73;;
67063;SDS011;58476;48.072;11.970;2024-02-26T11:17:37;7.13;;;1.90;;
67063;SDS011;58476;48.072;11.970;2024-02-26T11:20:03;5.30;;;1.30;;
67063;SDS011;58476;48.072;11.970;2024-02-26T11:22:29;4.13;;;1.58;;
67063;SDS011;58476;48.072;11.970;2024-02-26T11:24:55;2.33;;;1.60;;
67063;SDS011;58476;48.072;11.970;2024-02-26T11:27:22;3.60;;;1.48;;
67063;SDS011;58476;48.072;11.970;2024-02-26T11:29:51;6.77;;;1.73;;
67063;SDS011;58476;48.072;11.970;2024-02-26T11:32:19;6.60;;;1.70;;
67063;SDS011;58476;48.072;11.970;2024-02-26T11:34:45;3.58;;;1.50;;
67063;SDS011;58476;48.072;11.970;2024-02-26T11:39:40;2.17;;;1.33;;
67063;SDS011;58476;48.072;11.970;2024-02-26T11:42:06;7.13;;;1.42;;
67063;SDS011;58476;48.072;11.970;2024-02-26T11:44:32;5.22;;;1.60;;
67063;SDS011;58476;48.072;11.970;2024-02-26T11:46:58;2.70;;;1.38;;
67063;SDS011;58476;48.072;11.970;2024-02-26T11:51:51;1.63;;;1.33;;
67063;SDS011;58476;48.072;11.970;2024-02-26T11:57:23;1.27;;;1.17;;
67063;SDS011;58476;48.072;11.970;2024-02-26T11:59:49;3.58;;;1.30;;
67063;SDS011;58476;48.072;11.970;2024-02-26T12:05:11;5.18;;;1.17;;
67063;SDS011;58476;48.072;11.970;2024-02-26T12:07:36;2.33;;;1.38;;
67063;SDS011;58476;48.072;11.970;2024-02-26T12:10:14;1.98;;;1.10;;
67063;SDS011;58476;48.072;11.970;2024-02-26T12:12:59;4.25;;;1.45;;
67063;SDS011;58476;48.072;11.970;2024-02-26T12:15:30;3.10;;;1.35;;
67063;SDS011;58476;48.072;11.970;2024-02-26T12:17:57;2.43;;;1.20;;
67063;SDS011;58476;48.072;11.970;2024-02-26T12:20:24;4.18;;;1.10;;
67063;SDS011;58476;48.072;11.970;2024-02-26T12:22:50;1.77;;;1.20;;
67063;SDS011;58476;48.072;11.970;2024-02-26T12:25:15;2.53;;;1.20;;
67063;SDS011;58476;48.072;11.970;2024-02-26T12:27:41;3.47;;;1.30;;
67063;SDS011;58476;48.072;11.970;2024-02-26T12:30:06;1.98;;;1.38;;
67063;SDS011;58476;48.072;11.970;2024-02-26T12:32:33;4.13;;;1.13;;
67063;SDS011;58476;48.072;11.970;2024-02-26T12:34:58;2.25;;;1.30;;
67063;SDS011;58476;48.072;11.970;2024-02-26T12:37:23;5.32;;;1.20;;
67063;SDS011;58476;48.072;11.970;2024-02-26T12:39:49;8.05;;;2.45;;
67063;SDS011;58476;48.072;11.970;2024-02-26T12:42:15;11.50;;;1.95;;
67063;SDS011;58476;48.072;11.970;2024-02-26T12:44:40;7.97;;;1.52;;
67063;SDS011;58476;48.072;11.970;2024-02-26T12:47:05;4.20;;;1.30;;
67063;SDS011;58476;48.072;11.970;2024-02-26T12:49:31;5.55;;;1.40;;
67063;SDS011;58476;48.072;11.970;2024-02-26T12:51:56;5.00;;;2.00;;
67063;SDS011;58476;48.072;11.970;2024-02-26T12:54:22;5.95;;;1.33;;
67063;SDS011;58476;48.072;11.970;2024-02-26T12:56:47;4.30;;;1.20;;
67063;SDS011;58476;48.072;11.970;2024-02-26T12:59:13;5.80;;;1.30;;
67063;SDS011;58476;48.072;11.970;2024-02-26T13:01:38;7.00;;;1.35;;
67063;SDS011;58476;48.072;11.970;2024-02-26T13:04:04;3.70;;;1.00;;
67063;SDS011;58476;48.072;11.970;2024-02-26T13:06:29;4.43;;;1.45;;
67063;SDS011;58476;48.072;11.970;2024-02-26T13:08:56;4.60;;;1.25;;
67063;SDS011;58476;48.072;11.970;2024-02-26T13:11:22;7.85;;;1.42;;
67063;SDS011;58476;48.072;11.970;2024-02-26T13:13:48;3.80;;;1.20;;
67063;SDS011;58476;48.072;11.970;2024-02-26T13:16:14;7.18;;;1.55;;
67063;SDS011;58476;48.072;11.970;2024-02-26T13:18:40;7.03;;;1.20;;
67063;SDS011;58476;48.072;11.970;2024-02-26T13:21:12;8.07;;;1.30;;
67063;SDS011;58476;48.072;11.970;2024-02-26T13:23:39;4.43;;;1.92;;
67063;SDS011;58476;48.072;11.970;2024-02-26T13:26:05;5.95;;;1.45;;
67063;SDS011;58476;48.072;11.970;2024-02-26T13:28:30;2.33;;;1.20;;
67063;SDS011;58476;48.072;11.970;2024-02-26T13:30:56;2.33;;;1.30;;
67063;SDS011;58476;48.072;11.970;2024-02-26T13:33:23;4.15;;;1.30;;
67063;SDS011;58476;48.072;11.970;2024-02-26T13:35:49;3.70;;;1.40;;
67063;SDS011;58476;48.072;11.970;2024-02-26T13:38:15;1.90;;;1.20;;
67063;SDS011;58476;48.072;11.970;2024-02-26T13:40:41;4.43;;;1.38;;
67063;SDS011;58476;48.072;11.970;2024-02-26T13:43:06;3.85;;;1.20;;
67063;SDS011;58476;48.072;11.970;2024-02-26T13:45:35;5.35;;;2.42;;
67063;SDS011;58476;48.072;11.970;2024-02-26T13:48:05;4.53;;;1.40;;
67063;SDS011;58476;48.072;11.970;2024-02-26T13:50:32;2.50;;;1.45;;
67063;SDS011;58476;48.072;11.970;2024-02-26T13:52:57;6.35;;;2.20;;
67063;SDS011;58476;48.072;11.970;2024-02-26T13:55:25;2.38;;;1.10;;
67063;SDS011;58476;48.072;11.970;2024-02-26T13:57:50;5.43;;;1.30;;
67063;SDS011;58476;48.072;11.970;2024-02-26T14:00:17;8.00;;;1.92;;
67063;SDS011;58476;48.072;11.970;2024-02-26T14:02:42;3.13;;;1.20;;
67063;SDS011;58476;48.072;11.970;2024-02-26T14:05:08;4.32;;;1.20;;
67063;SDS011;58476;48.072;11.970;2024-02-26T14:07:33;1.60;;;1.15;;
67063;SDS011;58476;48.072;11.970;2024-02-26T14:09:59;2.38;;;1.20;;
67063;SDS011;58476;48.072;11.970;2024-02-26T14:12:24;4.43;;;1.00;;
67063;SDS011;58476;48.072;11.970;2024-02-26T14:14:49;3.22;;;1.30;;
67063;SDS011;58476;48.072;11.970;2024-02-26T14:17:15;6.00;;;1.35;;
67063;SDS011;58476;48.072;11.970;2024-02-26T14:19:41;4.60;;;1.45;;
67063;SDS011;58476;48.072;11.970;2024-02-26T14:22:06;5.93;;;1.60;;
67063;SDS011;58476;48.072;11.970;2024-02-26T14:24:32;6.35;;;1.40;;
67063;SDS011;58476;48.072;11.970;2024-02-26T14:26:57;4.00;;;1.42;;
67063;SDS011;58476;48.072;11.970;2024-02-26T14:29:22;5.85;;;2.25;;
67063;SDS011;58476;48.072;11.970;2024-02-26T14:31:48;5.60;;;1.65;;